Oak Lodge, Oregon
Current Conditions -  °F | °C
As of 1:53 AM on Sunday 21 Dec 2014 (Local Time) from KPDX Reporting Station
Overcast Overcast  
Wind Chill: 58°   Ceiling: 8500
Heat Index: 58°   Visibility: 10mi
Dew Point: 50°   Wind: 9mph
Humidity: 75%   Direction: 230°SW
Pressure: 29.81"   Gusts: NA
Location:  45.4079°N, 122.613°W
Report Text: KPDX 210953Z 23008KT 10SM BKN085 OVC150 14/10 A2981 RMK AO2 SLP094 T01440100
Loading
Personal Weather Stations






























Interactive Weather Map New forecast layout! Learn more

10-Day Weather Forecast

Advertisements
Track Severe Weather on mobile